Time;durP1;ratioP1;P1;durP2;ratioP2;P2;SDS_P1;SDS_P2;PMS_P1;PMS_P2;Temp;Humidity;BMP_temperature;BMP_pressure;BME280_temperature;BME280_humidity;BME280_pressure;Samples;Min_cycle;Max_cycle;Signal;HPM_P1;HPM_P2
2022/10/04 00:01:50;;;;;;;5.55;2.42;;;8.60;99.90;;;;;;4972588;28;20034;-68
2022/10/04 00:04:51;;;;;;;7.72;2.28;;;8.60;99.90;;;;;;4971949;28;20512;-68
2022/10/04 00:07:27;;;;;;;3.47;1.98;;;8.50;99.90;;;;;;4972420;28;20510;-69
2022/10/04 00:10:02;;;;;;;4.35;2.15;;;8.50;99.90;;;;;;4971290;28;20027;-69
2022/10/04 00:13:00;;;;;;;5.20;2.03;;;8.40;99.90;;;;;;4970932;28;20038;-69
2022/10/04 00:15:36;;;;;;;4.53;2.45;;;8.30;99.90;;;;;;4967278;28;20402;-69
2022/10/04 00:18:10;;;;;;;9.70;3.10;;;8.30;99.90;;;;;;4972462;28;20113;-68
2022/10/04 00:20:49;;;;;;;9.23;2.65;;;8.30;99.90;;;;;;4972464;28;20039;-69
2022/10/04 00:23:24;;;;;;;12.32;2.78;;;8.30;99.90;;;;;;4971617;28;20050;-69
2022/10/04 00:25:57;;;;;;;5.55;1.90;;;8.30;99.90;;;;;;4972198;28;20037;-69
2022/10/04 00:28:23;;;;;;;3.47;2.17;;;8.20;99.90;;;;;;4972261;28;20044;-69
2022/10/04 00:31:20;;;;;;;4.22;2.63;;;8.20;99.90;;;;;;4972234;28;20031;-69
2022/10/04 00:34:08;;;;;;;4.45;2.47;;;8.20;99.90;;;;;;4971977;28;20023;-68
2022/10/04 00:36:44;;;;;;;4.80;2.05;;;8.20;99.90;;;;;;4971922;28;20039;-68
2022/10/04 00:39:10;;;;;;;10.20;2.33;;;8.30;99.90;;;;;;4970952;28;20035;-68
2022/10/04 00:41:48;;;;;;;11.57;2.92;;;8.40;99.90;;;;;;4972250;28;20047;-68
2022/10/04 00:44:34;;;;;;;7.82;3.10;;;8.50;99.90;;;;;;4971831;28;20046;-68
2022/10/04 00:47:12;;;;;;;9.75;3.30;;;8.50;99.90;;;;;;4956284;28;20019;-69
2022/10/04 00:49:41;;;;;;;3.97;2.30;;;8.50;99.90;;;;;;4970900;28;20361;-68
2022/10/04 00:52:18;;;;;;;5.65;2.85;;;8.50;99.90;;;;;;4970844;28;20038;-68
2022/10/04 00:54:52;;;;;;;3.22;2.03;;;8.50;99.90;;;;;;4970807;28;20038;-69
2022/10/04 00:57:41;;;;;;;4.55;2.80;;;8.50;99.90;;;;;;4970648;28;20417;-68
2022/10/04 01:00:18;;;;;;;4.10;2.60;;;8.50;99.90;;;;;;4971977;28;20113;-69
2022/10/04 01:03:29;;;;;;;5.93;2.30;;;8.50;99.90;;;;;;4970478;28;20035;-68
2022/10/04 01:06:00;;;;;;;5.65;2.60;;;8.50;99.90;;;;;;4948691;28;20383;-69
2022/10/04 01:08:43;;;;;;;6.60;3.17;;;8.40;99.90;;;;;;4948678;29;20039;-69
2022/10/04 01:11:29;;;;;;;5.53;2.95;;;8.40;99.90;;;;;;4951246;29;20031;-68
2022/10/04 01:13:58;;;;;;;4.55;2.40;;;8.30;99.90;;;;;;4951037;29;20360;-69
2022/10/04 01:16:36;;;;;;;4.00;2.13;;;8.20;99.90;;;;;;4935817;29;20036;-68
2022/10/04 01:19:20;;;;;;;3.05;1.77;;;8.00;99.90;;;;;;4932030;29;20023;-69
2022/10/04 01:21:56;;;;;;;4.32;1.88;;;7.90;99.90;;;;;;4952919;23;20135;-78
2022/10/04 01:24:23;;;;;;;2.90;2.00;;;7.80;99.90;;;;;;4972663;28;20387;-77
2022/10/04 01:26:49;;;;;;;4.45;2.30;;;7.90;99.90;;;;;;4975066;28;20023;-77
2022/10/04 01:29:25;;;;;;;3.70;2.10;;;7.90;99.90;;;;;;4975301;28;20493;-77
2022/10/04 01:31:58;;;;;;;4.22;1.73;;;7.90;99.90;;;;;;4974067;28;20058;-77
2022/10/04 01:34:27;;;;;;;6.15;2.78;;;7.90;99.90;;;;;;4975042;28;20031;-77
2022/10/04 01:36:56;;;;;;;4.30;2.28;;;8.00;99.90;;;;;;4975085;28;20486;-77
2022/10/04 01:39:25;;;;;;;5.20;1.92;;;8.00;99.90;;;;;;4958185;28;20073;-77
2022/10/04 01:42:14;;;;;;;5.80;2.20;;;8.00;99.90;;;;;;4973874;28;20039;-77
2022/10/04 01:44:59;;;;;;;4.50;2.10;;;8.00;99.90;;;;;;4974040;28;20027;-77
2022/10/04 01:47:59;;;;;;;3.60;2.13;;;7.90;99.90;;;;;;4973875;28;20030;-77
2022/10/04 01:50:44;;;;;;;3.35;2.13;;;7.80;99.90;;;;;;4973545;28;20026;-77
2022/10/04 01:53:22;;;;;;;5.47;2.63;;;7.80;99.90;;;;;;4973383;28;20034;-77
2022/10/04 01:55:53;;;;;;;7.82;2.60;;;7.70;99.90;;;;;;4975048;28;20038;-77
2022/10/04 01:58:32;;;;;;;5.55;3.00;;;7.70;99.90;;;;;;4974800;28;20423;-77
2022/10/04 02:01:23;;;;;;;5.40;3.15;;;7.50;99.90;;;;;;4973575;28;20034;-77
2022/10/04 02:04:07;;;;;;;5.47;2.75;;;7.50;99.90;;;;;;4972847;28;20023;-77
2022/10/04 02:06:42;;;;;;;4.30;2.33;;;7.60;99.90;;;;;;4973458;28;20031;-77
2022/10/04 02:09:14;;;;;;;4.78;2.70;;;7.60;99.90;;;;;;4974460;28;20387;-77
2022/10/04 02:11:43;;;;;;;4.10;2.55;;;7.60;99.90;;;;;;4974474;28;20037;-77
2022/10/04 02:14:21;;;;;;;4.03;2.25;;;7.60;99.90;;;;;;4972913;28;20033;-77
2022/10/04 02:16:52;;;;;;;11.93;2.67;;;7.60;99.90;;;;;;4954006;28;20042;-77
2022/10/04 02:19:26;;;;;;;6.57;2.60;;;7.70;99.90;;;;;;4953664;29;20128;-77
2022/10/04 02:21:54;;;;;;;7.57;2.67;;;7.70;99.90;;;;;;4964278;28;20042;-77
2022/10/04 02:24:20;;;;;;;6.88;3.58;;;7.70;99.90;;;;;;4973808;28;20037;-77
2022/10/04 02:26:52;;;;;;;9.35;2.83;;;7.70;99.90;;;;;;4973041;28;20023;-77
2022/10/04 02:29:19;;;;;;;3.50;1.52;;;7.70;99.90;;;;;;4972818;28;20023;-77
2022/10/04 02:34:33;;;;;;;4.20;2.05;;;7.50;99.90;;;;;;4972804;28;20038;-77
2022/10/04 02:37:04;;;;;;;2.60;1.70;;;7.50;99.90;;;;;;4972992;28;20037;-77
2022/10/04 02:39:42;;;;;;;;;;;7.50;99.90;;;;;;4973255;28;20027;-77
2022/10/04 02:42:33;;;;;;;6.20;2.58;;;7.40;99.90;;;;;;4972394;28;19917;-77
2022/10/04 02:45:23;;;;;;;12.07;2.20;;;7.40;99.90;;;;;;4972685;28;20415;-77
2022/10/04 02:47:59;;;;;;;10.30;2.72;;;7.50;99.90;;;;;;4954666;28;20042;-77
2022/10/04 02:50:47;;;;;;;12.18;2.00;;;7.50;99.90;;;;;;4954385;29;20035;-78
2022/10/04 02:53:32;;;;;;;4.18;1.85;;;7.60;99.90;;;;;;4952869;28;20397;-77
2022/10/04 02:56:00;;;;;;;7.15;2.15;;;7.50;99.90;;;;;;4954423;28;20042;-77
2022/10/04 02:58:26;;;;;;;1.92;1.35;;;7.60;99.90;;;;;;4937644;29;20031;-77
2022/10/04 03:00:59;;;;;;;12.23;2.95;;;7.60;99.90;;;;;;4953076;28;20038;-77
2022/10/04 03:03:35;;;;;;;3.20;1.80;;;7.60;99.90;;;;;;4961324;28;20035;-77
2022/10/04 03:06:13;;;;;;;4.22;2.08;;;7.60;99.90;;;;;;4973126;28;20506;-77
2022/10/04 03:08:42;;;;;;;4.53;2.28;;;7.60;99.90;;;;;;4971980;28;20106;-77
2022/10/04 03:11:10;;;;;;;3.08;1.35;;;7.70;99.90;;;;;;4966413;28;20035;-77
2022/10/04 03:13:40;;;;;;;5.30;2.17;;;7.60;99.90;;;;;;4952219;28;20031;-77
2022/10/04 03:16:07;;;;;;;3.50;1.83;;;7.50;99.90;;;;;;4967547;28;20061;-77
2022/10/04 03:18:35;;;;;;;5.78;2.28;;;7.50;99.90;;;;;;4971762;28;20078;-77
2022/10/04 03:21:05;;;;;;;9.27;2.75;;;7.50;99.90;;;;;;4938252;29;20038;-77
2022/10/04 03:23:34;;;;;;;6.22;2.10;;;7.50;99.90;;;;;;4952149;28;20086;-77
2022/10/04 03:26:28;;;;;;;6.32;1.77;;;7.50;99.90;;;;;;4953630;28;20499;-78
2022/10/04 03:28:57;;;;;;;4.45;2.58;;;7.40;99.90;;;;;;4952150;28;20042;-78
2022/10/04 03:31:26;;;;;;;4.97;3.65;;;7.50;99.90;;;;;;4952373;28;20631;-77
2022/10/04 03:33:56;;;;;;;4.07;2.30;;;7.40;99.90;;;;;;4951805;29;20047;-77
2022/10/04 03:36:25;;;;;;;1.45;1.17;;;7.40;99.90;;;;;;4940660;28;20031;-77
2022/10/04 03:38:55;;;;;;;3.42;1.73;;;7.40;99.90;;;;;;4970864;28;20035;-77
2022/10/04 03:41:24;;;;;;;5.07;1.92;;;7.40;99.90;;;;;;4971702;28;20450;-77
2022/10/04 03:43:53;;;;;;;5.25;2.40;;;7.30;99.90;;;;;;4970460;28;20031;-77
2022/10/04 03:46:21;;;;;;;3.85;1.67;;;7.40;99.90;;;;;;4971665;28;20038;-77
2022/10/04 03:48:51;;;;;;;2.97;2.00;;;7.30;99.90;;;;;;4970962;28;20487;-77
2022/10/04 03:51:22;;;;;;;7.60;2.95;;;7.30;99.90;;;;;;4971515;28;20039;-76
2022/10/04 03:54:00;;;;;;;2.90;1.60;;;7.30;99.90;;;;;;4972394;28;20073;-77
2022/10/04 03:56:34;;;;;;;5.43;2.20;;;7.30;99.90;;;;;;4955198;28;20027;-76
2022/10/04 03:59:04;;;;;;;5.45;2.78;;;7.30;99.90;;;;;;4972499;28;20054;-77
2022/10/04 04:01:39;;;;;;;5.03;2.22;;;7.30;99.90;;;;;;4971145;28;20030;-78
2022/10/04 04:04:30;;;;;;;4.35;2.10;;;7.20;99.90;;;;;;4968665;28;20031;-77
2022/10/04 04:07:36;;;;;;;2.20;1.63;;;7.10;99.90;;;;;;4970514;28;20387;-76
2022/10/04 04:10:25;;;;;;;2.75;1.73;;;7.10;99.90;;;;;;4971762;28;20043;-76
2022/10/04 04:13:30;;;;;;;3.70;2.17;;;7.10;99.90;;;;;;4967810;28;20550;-75
2022/10/04 04:16:00;;;;;;;5.35;2.97;;;7.20;99.90;;;;;;4970683;28;20034;-76
2022/10/04 04:18:33;;;;;;;4.00;2.38;;;7.20;99.90;;;;;;4970764;28;20035;-74
2022/10/04 04:21:01;;;;;;;2.28;1.50;;;7.10;99.90;;;;;;4970579;28;20038;-74
2022/10/04 04:23:37;;;;;;;6.63;2.85;;;7.20;99.90;;;;;;4970154;28;20134;-75
2022/10/04 04:26:36;;;;;;;3.30;1.58;;;7.30;99.90;;;;;;4967422;28;20039;-74
2022/10/04 04:29:38;;;;;;;4.95;2.45;;;7.30;99.90;;;;;;4951738;29;20069;-74
2022/10/04 04:32:45;;;;;;;2.95;1.80;;;7.30;99.90;;;;;;4971617;28;20037;-74
2022/10/04 04:35:32;;;;;;;5.22;3.30;;;7.40;99.90;;;;;;4964331;28;20035;-74
2022/10/04 04:38:15;;;;;;;6.80;3.00;;;7.30;99.90;;;;;;4951325;28;20031;-74
2022/10/04 04:40:41;;;;;;;8.00;3.83;;;7.40;99.90;;;;;;4952235;28;20038;-74
2022/10/04 04:43:17;;;;;;;5.43;2.63;;;7.40;99.90;;;;;;4950750;28;20506;-74
2022/10/04 04:45:47;;;;;;;9.50;3.78;;;7.40;99.90;;;;;;4951087;28;20110;-77
2022/10/04 04:48:17;;;;;;;3.00;2.28;;;7.40;99.90;;;;;;4952323;28;20406;-73
2022/10/04 04:50:57;;;;;;;4.18;2.33;;;7.40;99.90;;;;;;4951136;28;20106;-73
2022/10/04 04:53:27;;;;;;;3.72;2.47;;;7.30;99.90;;;;;;4950540;28;20038;-73
2022/10/04 04:55:59;;;;;;;2.00;1.48;;;7.30;99.90;;;;;;4955029;28;20039;-73
2022/10/04 04:58:47;;;;;;;4.72;2.13;;;7.30;99.90;;;;;;4905802;28;20079;-73
2022/10/04 05:01:41;;;;;;;3.65;1.85;;;7.30;99.90;;;;;;4978716;28;20037;-74
2022/10/04 05:04:12;;;;;;;3.65;2.53;;;7.20;99.90;;;;;;4972165;28;20043;-73
2022/10/04 05:07:05;;;;;;;;;;;7.10;99.90;;;;;;4975810;28;20118;-73
2022/10/04 05:09:40;;;;;;;4.30;2.03;;;7.10;99.90;;;;;;4975228;28;19957;-73
2022/10/04 05:12:22;;;;;;;4.97;2.75;;;7.10;99.90;;;;;;4989604;28;20034;-74
2022/10/04 05:14:53;;;;;;;14.65;7.03;;;7.10;99.90;;;;;;4973851;28;20042;-74
2022/10/04 05:17:32;;;;;;;6.53;2.65;;;7.10;99.90;;;;;;4973854;28;20082;-74
2022/10/04 05:20:01;;;;;;;5.90;2.33;;;7.00;99.90;;;;;;4974035;28;20035;-74
2022/10/04 05:22:29;;;;;;;2.90;1.63;;;7.00;99.90;;;;;;4973079;28;20030;-74
2022/10/04 05:25:01;;;;;;;3.50;2.22;;;6.90;99.90;;;;;;4973941;28;20097;-74
2022/10/04 05:27:41;;;;;;;1.73;1.13;;;6.90;99.90;;;;;;4973613;28;20023;-74
2022/10/04 05:30:35;;;;;;;6.80;2.75;;;7.00;99.90;;;;;;4970234;28;20491;-74
2022/10/04 05:33:10;;;;;;;6.53;2.92;;;7.00;99.90;;;;;;4969278;28;20039;-74
2022/10/04 05:36:10;;;;;;;3.97;2.35;;;7.00;99.90;;;;;;4968790;28;20064;-74
2022/10/04 05:39:04;;;;;;;5.80;2.28;;;7.00;99.90;;;;;;4960358;28;20031;-75
2022/10/04 05:42:18;;;;;;;6.82;2.13;;;7.00;99.90;;;;;;4993225;28;20121;-73
2022/10/04 05:44:53;;;;;;;2.63;1.80;;;7.10;99.90;;;;;;4983883;28;20047;-74
2022/10/04 05:47:23;;;;;;;9.65;2.33;;;7.10;99.90;;;;;;4974066;28;20030;-74
2022/10/04 05:49:56;;;;;;;3.60;2.45;;;7.20;99.90;;;;;;4957099;28;20030;-74
2022/10/04 05:52:36;;;;;;;2.15;1.42;;;7.30;99.90;;;;;;4972642;28;20695;-74
2022/10/04 05:55:11;;;;;;;4.72;1.80;;;7.20;99.90;;;;;;4974267;28;20049;-74
2022/10/04 05:58:18;;;;;;;3.55;1.90;;;7.30;99.90;;;;;;4974092;28;20162;-74
2022/10/04 06:01:06;;;;;;;4.18;2.20;;;7.30;99.90;;;;;;4962916;28;20043;-72
2022/10/04 06:03:40;;;;;;;3.55;2.17;;;7.20;99.90;;;;;;4969850;28;20393;-75
2022/10/04 06:06:16;;;;;;;6.60;3.28;;;7.30;99.90;;;;;;4954479;28;20392;-76
2022/10/04 06:09:09;;;;;;;3.30;1.80;;;7.40;99.90;;;;;;4954932;29;20097;-75
2022/10/04 06:12:01;;;;;;;4.75;2.22;;;7.40;99.90;;;;;;4943927;28;20039;-73
2022/10/04 06:15:14;;;;;;;8.07;3.42;;;7.50;99.90;;;;;;4973655;28;20133;-73
2022/10/04 06:18:17;;;;;;;5.25;2.80;;;7.50;99.90;;;;;;4973910;28;20395;-73
2022/10/04 06:21:04;;;;;;;3.63;2.20;;;7.60;99.90;;;;;;4974010;28;20077;-73
2022/10/04 06:23:35;;;;;;;3.25;1.85;;;7.60;99.90;;;;;;4973126;28;20714;-73
2022/10/04 06:26:11;;;;;;;;;;;7.60;99.90;;;;;;4974267;28;20484;-73
2022/10/04 06:28:45;;;;;;;2.55;1.55;;;7.70;99.90;;;;;;4973848;28;19910;-75
2022/10/04 06:31:49;;;;;;;2.17;1.50;;;7.70;99.90;;;;;;4987953;28;20042;-73
2022/10/04 06:34:44;;;;;;;5.40;2.17;;;7.70;99.90;;;;;;4973314;28;20048;-74
2022/10/04 06:38:03;;;;;;;4.70;3.00;;;7.70;99.90;;;;;;4973503;28;20031;-73
2022/10/04 06:40:55;;;;;;;11.18;1.98;;;7.60;99.90;;;;;;4972237;28;20038;-74
2022/10/04 06:44:14;;;;;;;3.35;1.95;;;7.70;99.90;;;;;;4973222;28;20065;-72
2022/10/04 06:47:22;;;;;;;5.10;2.10;;;7.60;99.90;;;;;;4967351;28;20057;-73
2022/10/04 06:50:13;;;;;;;4.35;2.17;;;7.70;99.90;;;;;;4973350;28;20034;-78
2022/10/04 06:53:07;;;;;;;5.50;2.55;;;7.70;99.90;;;;;;4972665;28;20090;-74
2022/10/04 06:55:41;;;;;;;3.95;2.30;;;7.80;99.90;;;;;;4972277;28;20118;-74
2022/10/04 06:58:31;;;;;;;4.35;2.30;;;7.90;99.90;;;;;;4973081;28;20034;-73
2022/10/04 07:01:34;;;;;;;4.28;2.88;;;8.00;99.90;;;;;;4971736;28;20030;-75
2022/10/04 07:04:27;;;;;;;4.72;2.97;;;8.00;99.90;;;;;;4972468;28;20397;-74
2022/10/04 07:07:25;;;;;;;5.30;2.97;;;8.10;99.90;;;;;;4973180;28;20059;-72
2022/10/04 07:10:31;;;;;;;3.80;1.80;;;8.00;99.90;;;;;;4971846;28;20031;-73
2022/10/04 07:13:04;;;;;;;4.57;2.22;;;8.10;99.90;;;;;;4952529;29;20075;-76
2022/10/04 07:15:46;;;;;;;7.35;3.10;;;8.20;99.90;;;;;;4953571;29;20027;-73
2022/10/04 07:18:25;;;;;;;5.53;3.35;;;8.30;99.90;;;;;;4979434;28;20043;-73
2022/10/04 07:21:04;;;;;;;4.75;2.55;;;8.30;99.90;;;;;;4969404;28;20052;-73
2022/10/04 07:23:55;;;;;;;8.73;2.70;;;8.40;99.90;;;;;;4992238;23;20141;-73
2022/10/04 07:26:25;;;;;;;5.72;3.03;;;8.40;99.90;;;;;;4987949;28;20101;-73
2022/10/04 07:31:43;;;;;;;4.93;2.30;;;8.50;99.90;;;;;;4990857;28;20041;-73
2022/10/04 07:34:26;;;;;;;4.45;2.10;;;8.50;99.90;;;;;;4991204;28;20033;-73
2022/10/04 07:36:55;;;;;;;5.57;2.50;;;8.50;99.90;;;;;;4990642;28;20041;-74
2022/10/04 07:39:58;;;;;;;4.80;3.08;;;8.50;99.90;;;;;;4976003;28;20046;-73
2022/10/04 07:42:51;;;;;;;5.13;2.70;;;8.60;99.90;;;;;;4949253;28;20122;-78
2022/10/04 07:45:31;;;;;;;3.90;1.95;;;8.70;99.90;;;;;;4972233;28;20043;-84
2022/10/04 07:48:21;;;;;;;4.75;2.88;;;8.80;99.90;;;;;;4971498;28;20458;-86
2022/10/04 07:51:10;;;;;;;3.65;2.30;;;8.90;99.90;;;;;;4972070;28;20826;-74
2022/10/04 07:53:51;;;;;;;8.35;3.20;;;9.00;99.90;;;;;;4970423;28;20479;-74
2022/10/04 07:56:53;;;;;;;5.28;2.83;;;8.90;99.90;;;;;;4970872;28;20062;-73
2022/10/04 08:00:09;;;;;;;6.50;2.13;;;8.80;99.90;;;;;;4957024;28;20125;-73
2022/10/04 08:02:56;;;;;;;5.82;2.75;;;9.00;99.90;;;;;;4989733;28;20030;-75
2022/10/04 08:05:40;;;;;;;4.75;2.47;;;9.20;99.90;;;;;;4984021;28;21279;-76
2022/10/04 08:09:02;;;;;;;3.83;2.22;;;9.40;99.90;;;;;;4956197;28;20037;-76
2022/10/04 08:11:47;;;;;;;;;;;9.50;99.90;;;;;;4968776;28;20026;-74
2022/10/04 08:14:44;;;;;;;5.05;2.78;;;9.30;99.90;;;;;;4985886;28;19921;-74
2022/10/04 08:17:50;;;;;;;5.00;3.30;;;9.40;99.90;;;;;;4971865;28;20035;-74
2022/10/04 08:20:42;;;;;;;8.73;2.47;;;9.80;99.90;;;;;;4970903;28;20133;-76
2022/10/04 08:23:33;;;;;;;5.50;2.47;;;10.10;99.90;;;;;;4971378;28;20031;-73
2022/10/04 08:26:17;;;;;;;9.13;2.03;;;10.30;99.90;;;;;;4974223;28;20073;-78
2022/10/04 08:32:19;;;;;;;4.95;2.45;;;10.10;99.90;;;;;;4969244;28;20694;-73
2022/10/04 08:35:22;;;;;;;6.40;3.22;;;10.10;99.90;;;;;;4962667;28;20499;-74
2022/10/04 08:37:53;;;;;;;13.68;3.88;;;10.50;99.90;;;;;;4967216;28;20035;-72
2022/10/04 08:40:59;;;;;;;10.98;3.70;;;10.70;99.90;;;;;;4966522;28;20031;-72
2022/10/04 08:44:04;;;;;;;5.07;3.13;;;11.00;99.90;;;;;;4964312;28;20039;-73
2022/10/04 08:46:58;;;;;;;6.25;4.00;;;10.90;99.90;;;;;;4971545;28;20117;-74
2022/10/04 08:50:01;;;;;;;7.38;3.83;;;11.00;99.90;;;;;;4971277;28;20104;-73
2022/10/04 08:52:57;;;;;;;8.95;3.90;;;11.10;99.90;;;;;;4966693;28;20035;-73
2022/10/04 08:55:58;;;;;;;6.35;4.18;;;11.10;99.90;;;;;;4970653;28;20030;-73
2022/10/04 08:59:10;;;;;;;11.93;3.78;;;11.40;99.90;;;;;;4970202;28;20076;-74
2022/10/04 09:02:34;;;;;;;10.45;3.85;;;11.70;99.90;;;;;;4964735;28;20155;-73
2022/10/04 09:05:28;;;;;;;9.13;3.70;;;11.90;99.90;;;;;;4973254;28;20058;-73
2022/10/04 09:08:40;;;;;;;7.20;3.83;;;12.20;99.90;;;;;;4973171;28;20035;-73
2022/10/04 09:11:09;;;;;;;14.07;4.53;;;12.00;99.90;;;;;;4970346;28;20048;-73
2022/10/04 09:14:06;;;;;;;7.20;4.03;;;12.20;99.90;;;;;;4970049;28;20050;-73
2022/10/04 09:17:16;;;;;;;9.02;3.88;;;12.40;99.90;;;;;;4967113;28;20083;-73
2022/10/04 09:20:46;;;;;;;6.88;3.42;;;12.60;99.90;;;;;;4974659;28;20031;-73
2022/10/04 09:23:48;;;;;;;7.38;3.83;;;12.40;99.90;;;;;;4939249;28;20085;-76
2022/10/04 09:26:44;;;;;;;17.90;3.75;;;12.60;99.90;;;;;;4953715;28;20451;-75
2022/10/04 09:29:29;;;;;;;21.23;6.05;;;12.90;99.90;;;;;;4956847;28;20031;-73
2022/10/04 09:32:25;;;;;;;27.00;4.55;;;12.70;99.90;;;;;;4970262;28;20035;-73
2022/10/04 09:35:06;;;;;;;7.57;3.35;;;12.80;99.90;;;;;;4974391;28;20033;-71
2022/10/04 09:37:35;;;;;;;12.07;3.85;;;12.80;99.90;;;;;;4963745;28;20382;-75
2022/10/04 09:40:39;;;;;;;9.23;4.25;;;12.70;99.90;;;;;;4970011;28;20042;-74
2022/10/04 09:43:46;;;;;;;8.68;3.72;;;12.80;99.90;;;;;;4971651;28;20045;-74
2022/10/04 09:46:18;;;;;;;9.20;3.97;;;13.20;99.90;;;;;;4973394;28;20033;-72
2022/10/04 09:49:21;;;;;;;9.05;4.10;;;13.30;99.90;;;;;;4973545;28;20031;-74
2022/10/04 09:52:24;;;;;;;9.35;5.15;;;13.60;99.90;;;;;;4973229;28;20035;-74
2022/10/04 09:55:25;;;;;;;8.65;4.28;;;13.50;99.90;;;;;;4975635;28;20026;-74
2022/10/04 09:58:27;;;;;;;7.75;3.88;;;13.70;99.90;;;;;;4973569;28;20042;-76
2022/10/04 10:01:11;;;;;;;11.15;4.90;;;13.80;99.90;;;;;;4962976;28;20035;-75
2022/10/04 10:04:21;;;;;;;8.73;4.18;;;14.10;99.90;;;;;;4967013;28;20037;-75
2022/10/04 10:07:32;;;;;;;11.07;3.75;;;14.30;99.90;;;;;;4956233;28;20066;-75
2022/10/04 10:14:19;;;;;;;7.90;3.17;;;14.40;99.90;;;;;;4982411;28;20160;-73
2022/10/04 10:16:58;;;;;;;4.93;3.08;;;14.70;99.90;;;;;;4973570;28;20059;-75
2022/10/04 10:19:59;;;;;;;5.63;2.35;;;14.90;99.90;;;;;;4973178;28;20034;-74
2022/10/04 10:23:29;;;;;;;5.40;2.88;;;15.30;99.90;;;;;;4972449;28;20064;-75
2022/10/04 10:26:38;;;;;;;24.42;3.28;;;15.20;99.90;;;;;;4940002;28;20050;-74
2022/10/04 10:29:22;;;;;;;6.10;2.33;;;15.40;99.90;;;;;;4968733;28;20033;-81
2022/10/04 10:32:36;;;;;;;7.22;2.13;;;15.90;99.90;;;;;;4972998;28;20078;-77
2022/10/04 10:35:41;;;;;;;11.02;2.78;;;15.70;99.90;;;;;;4976354;28;20566;-79
2022/10/04 10:38:30;;;;;;;3.63;1.70;;;15.60;99.90;;;;;;4972946;28;20031;-77
2022/10/04 10:41:34;;;;;;;3.47;1.88;;;15.70;99.90;;;;;;4973875;28;20035;-78
2022/10/04 10:44:33;;;;;;;4.15;1.85;;;15.80;99.90;;;;;;4967723;28;20038;-75
2022/10/04 10:47:13;;;;;;;5.57;1.83;;;15.80;99.90;;;;;;4967797;28;20117;-75
2022/10/04 10:50:17;;;;;;;5.22;1.98;;;16.30;99.90;;;;;;4972210;28;21733;-73
2022/10/04 10:52:58;;;;;;;2.38;1.20;;;16.00;99.90;;;;;;4969550;28;20031;-72
2022/10/04 10:56:07;;;;;;;2.03;1.05;;;15.80;99.90;;;;;;4971894;28;20073;-72
2022/10/04 10:59:10;;;;;;;1.35;1.08;;;16.10;99.90;;;;;;4970757;28;20053;-70
2022/10/04 11:02:04;;;;;;;5.63;1.55;;;16.60;99.90;;;;;;4971688;28;20031;-72
2022/10/04 11:05:16;;;;;;;5.43;1.50;;;16.80;99.90;;;;;;4971643;28;20190;-71
2022/10/04 11:07:52;;;;;;;3.08;1.23;;;16.70;99.90;;;;;;4971873;28;20504;-76
2022/10/04 11:10:39;;;;;;;5.03;1.63;;;16.80;99.90;;;;;;4972180;28;20442;-73
2022/10/04 11:13:46;;;;;;;4.85;1.63;;;16.70;99.90;;;;;;4971489;28;20035;-74
2022/10/04 11:16:49;;;;;;;9.80;2.20;;;17.40;99.90;;;;;;4972224;28;20046;-72
2022/10/04 11:19:56;;;;;;;3.53;1.13;;;18.30;99.90;;;;;;4968303;28;20514;-71
2022/10/04 11:23:08;;;;;;;2.97;1.58;;;18.30;99.90;;;;;;4965710;28;20038;-70
2022/10/04 11:26:18;;;;;;;2.95;1.30;;;18.00;99.90;;;;;;4970495;28;20074;-72
2022/10/04 11:29:30;;;;;;;1.65;1.10;;;18.20;99.90;;;;;;4971511;28;20147;-73
2022/10/04 11:31:58;;;;;;;2.58;1.13;;;19.30;99.90;;;;;;4948632;28;20509;-72
2022/10/04 11:34:59;;;;;;;3.83;1.52;;;20.30;99.90;;;;;;4970798;28;20077;-72
2022/10/04 11:38:03;;;;;;;1.67;1.00;;;20.90;99.90;;;;;;4971216;28;20114;-72
2022/10/04 11:40:57;;;;;;;3.00;1.23;;;20.00;99.90;;;;;;4971674;28;20039;-71
2022/10/04 11:44:08;;;;;;;2.72;1.20;;;20.60;99.90;;;;;;4978552;28;20089;-72
2022/10/04 11:47:06;;;;;;;5.30;1.45;;;19.30;99.90;;;;;;4944497;28;20098;-70
2022/10/04 11:49:56;;;;;;;8.63;1.77;;;18.90;99.90;;;;;;4971140;28;20050;-71
2022/10/04 11:52:48;;;;;;;6.53;2.53;;;19.30;99.90;;;;;;4972566;28;20039;-71
2022/10/04 11:55:53;;;;;;;3.08;1.52;;;19.10;99.90;;;;;;4969829;28;20541;-71
2022/10/04 11:58:58;;;;;;;4.07;1.13;;;20.90;99.90;;;;;;4964804;28;20027;-71
2022/10/04 12:01:59;;;;;;;4.32;1.30;;;21.00;99.60;;;;;;4971270;28;20035;-71
2022/10/04 12:05:00;;;;;;;1.77;1.42;;;20.10;99.90;;;;;;4968067;28;20045;-71
2022/10/04 12:07:53;;;;;;;4.13;1.10;;;20.30;99.90;;;;;;4971689;28;20132;-56
2022/10/04 12:10:39;;;;;;;6.22;1.10;;;19.80;99.90;;;;;;4970502;28;20032;-54
2022/10/04 12:13:50;;;;;;;2.17;1.20;;;20.10;99.90;;;;;;4986907;23;20476;-57
2022/10/04 12:17:00;;;;;;;4.68;2.05;;;20.20;99.90;;;;;;4989965;28;20045;-56
2022/10/04 12:19:51;;;;;;;7.32;1.58;;;21.30;99.90;;;;;;4991249;28;20037;-57
2022/10/04 12:22:31;;;;;;;;;;;21.10;99.90;;;;;;4991053;28;20457;-57
2022/10/04 12:25:29;;;;;;;5.75;1.23;;;20.80;99.90;;;;;;4989782;28;19913;-58
2022/10/04 12:28:31;;;;;;;2.05;0.95;;;21.80;99.40;;;;;;4991239;28;20038;-57
2022/10/04 12:30:59;;;;;;;4.43;1.95;;;22.10;98.20;;;;;;4991200;28;20026;-56
2022/10/04 12:34:14;;;;;;;3.67;1.10;;;22.00;99.00;;;;;;4990407;28;20030;-58
2022/10/04 12:37:29;;;;;;;3.03;1.25;;;23.80;95.90;;;;;;4978417;28;20168;-58
2022/10/04 12:40:29;;;;;;;3.03;1.30;;;23.20;96.70;;;;;;4990899;28;20031;-57
2022/10/04 12:43:18;;;;;;;4.17;1.23;;;22.70;95.30;;;;;;4989659;28;20501;-56
2022/10/04 12:45:55;;;;;;;4.60;0.90;;;21.70;97.10;;;;;;4990497;28;20372;-59
2022/10/04 12:49:03;;;;;;;5.68;1.08;;;23.20;95.90;;;;;;4989630;28;20117;-57
2022/10/04 12:51:55;;;;;;;2.83;1.10;;;21.40;96.90;;;;;;4990654;28;20402;-59
2022/10/04 12:54:51;;;;;;;3.90;1.13;;;22.60;97.50;;;;;;4989311;28;20393;-59
2022/10/04 12:57:47;;;;;;;6.45;2.65;;;22.40;96.60;;;;;;4989703;28;20578;-59
2022/10/04 13:00:21;;;;;;;6.38;2.10;;;22.90;96.00;;;;;;4990762;28;20038;-58
2022/10/04 13:03:16;;;;;;;3.50;1.00;;;23.20;96.00;;;;;;4990171;28;20030;-59
2022/10/04 13:06:38;;;;;;;2.38;1.38;;;21.40;96.60;;;;;;4990438;28;20041;-59
2022/10/04 13:09:25;;;;;;;4.28;0.88;;;21.80;98.10;;;;;;4955200;28;20077;-59
2022/10/04 13:12:23;;;;;;;2.25;0.93;;;22.30;97.10;;;;;;4990614;28;20034;-59
2022/10/04 13:15:13;;;;;;;1.77;0.85;;;21.90;97.00;;;;;;4990575;28;20042;-59
2022/10/04 13:17:48;;;;;;;2.08;1.10;;;21.30;98.00;;;;;;4994687;28;20030;-59
2022/10/04 13:20:53;;;;;;;2.47;1.52;;;21.20;98.80;;;;;;5008595;28;20113;-59
2022/10/04 13:23:54;;;;;;;3.25;1.00;;;22.20;97.40;;;;;;4995035;23;20479;-51
2022/10/04 13:26:40;;;;;;;3.80;0.95;;;22.00;97.20;;;;;;4974457;28;20475;-55
2022/10/04 13:30:01;;;;;;;9.23;1.40;;;21.90;98.10;;;;;;4974970;28;20030;-58
2022/10/04 13:33:08;;;;;;;15.00;3.78;;;22.20;96.70;;;;;;4974363;28;20034;-53
2022/10/04 13:36:15;;;;;;;3.05;1.27;;;23.20;95.50;;;;;;4940343;29;20068;-58
2022/10/04 13:38:50;;;;;;;4.50;0.95;;;23.00;95.30;;;;;;4954802;29;20047;-57
2022/10/04 13:41:23;;;;;;;3.80;0.90;;;23.00;95.20;;;;;;4955372;29;20035;-57
2022/10/04 13:44:29;;;;;;;4.70;1.88;;;22.00;96.20;;;;;;4953646;29;20086;-55
2022/10/04 13:47:46;;;;;;;3.10;1.00;;;22.00;97.70;;;;;;4955406;29;20047;-50
2022/10/04 13:51:06;;;;;;;4.47;1.40;;;23.10;96.40;;;;;;4953947;29;20062;-52
2022/10/04 13:57:36;;;;;;;2.85;1.00;;;24.40;95.10;;;;;;4954857;29;20062;-50
2022/10/04 14:00:13;;;;;;;2.50;1.08;;;22.90;96.20;;;;;;4858167;29;20041;-51
2022/10/04 14:03:22;;;;;;;1.85;0.88;;;23.90;94.20;;;;;;4840221;29;20829;-61
2022/10/04 14:06:04;;;;;;;3.88;1.25;;;22.50;96.20;;;;;;4947053;29;20051;-66
2022/10/04 14:09:13;;;;;;;6.95;1.45;;;23.30;94.90;;;;;;4954988;29;20038;-65
2022/10/04 14:12:04;;;;;;;3.63;1.30;;;23.10;96.30;;;;;;4954532;29;20145;-65
2022/10/04 14:15:04;;;;;;;2.65;1.10;;;22.80;97.10;;;;;;4954231;29;20599;-65
2022/10/04 14:18:36;;;;;;;7.28;1.02;;;22.40;96.60;;;;;;4938188;29;20039;-63
2022/10/04 14:21:49;;;;;;;6.80;1.27;;;23.10;95.70;;;;;;4954694;29;20046;-66
2022/10/04 14:24:21;;;;;;;3.95;1.42;;;23.80;95.60;;;;;;4953845;29;20634;-75
2022/10/04 14:27:38;;;;;;;4.40;0.93;;;23.60;95.40;;;;;;4954661;28;20035;-74
2022/10/04 14:30:50;;;;;;;6.10;1.63;;;25.10;92.90;;;;;;4954229;29;20546;-74
2022/10/04 14:33:49;;;;;;;6.88;1.58;;;23.70;93.00;;;;;;4953291;29;20035;-75
2022/10/04 14:36:39;;;;;;;4.90;1.20;;;23.60;96.10;;;;;;4938304;29;20443;-76
2022/10/04 14:39:20;;;;;;;1.92;0.88;;;24.10;94.90;;;;;;4937613;29;20146;-75
2022/10/04 14:42:53;;;;;;;5.03;1.38;;;23.30;94.30;;;;;;4937675;29;20043;-75
2022/10/04 14:45:49;;;;;;;8.10;1.38;;;22.20;96.70;;;;;;4941427;29;20051;-75
2022/10/04 14:48:40;;;;;;;2.88;1.58;;;22.60;97.00;;;;;;4954422;29;20146;-75
2022/10/04 14:51:11;;;;;;;;;;;23.70;95.40;;;;;;4939306;29;20069;-76
2022/10/04 14:54:12;;;;;;;2.28;1.20;;;23.90;94.30;;;;;;4953938;29;20277;-76
2022/10/04 14:56:58;;;;;;;6.70;1.15;;;23.70;93.90;;;;;;4954123;29;20551;-76
2022/10/04 14:59:53;;;;;;;4.50;1.10;;;24.40;94.00;;;;;;4937185;29;20065;-76